• Join FlightAware (Why Join?)
  • Login
  • US Flag GB Flag 
05:44 EDT


 

Airport Tracker/Info


-or-


 

Live Flight TrackerFlight Track Log ✈ N2876Q ✈ 06-Jan-2013 ✈ KFYE

Flight Track Log - Related Links

Times and Time Zones

All times are in EST time to prevent confusion due to time zone crossing. See the N2876Q flight status page for this flight to view local times or setup timezone preferences in your user account.

Time Position Orientation Groundspeed Altitude Reporting Facility
EST Latitude Longitude Course Direction KTS MPH feet Rate Location/Type
21:32 36.8167 -89.5536 120° Southeast 123 142 5,500  Level Memphis Center
21:33 36.7853 -89.5408 162° South 123 142 5,400 -60 Descending Memphis Center
21:34 36.7539 -89.5206 153° Southeast 123 142 5,400  Level Memphis Center
21:35 36.7228 -89.5131 169° South 123 142 5,400  Level Memphis Center
21:36 36.6894 -89.5083 174° South 123 142 5,400  Level Memphis Center
21:37 -19.8741 -160.2296 120° Southeast  Level Estimated
21:37 36.6561 -89.5136 187° South 123 142 5,500  Level Memphis Center
21:38 36.6228 -89.5244 195° South 123 142 5,500  Level Memphis Center
21:39 36.5917 -89.5428 205° Southwest 123 142 5,600  Climbing Memphis Center
21:40 36.5583 -89.5586 201° Southwest 128 147 5,600  Level Memphis Center
21:41 36.5250 -89.5694 195° South 128 147 5,600 -60 Level Memphis Center
21:42 36.4897 -89.5697 180° South 128 147 5,500 -60 Descending Memphis Center
21:43 36.4542 -89.5675 177° South 123 142 5,500  Level Memphis Center
21:44 36.4208 -89.5678 180° South 123 142 5,500 -60 Level Memphis Center
21:45 36.3875 -89.5603 170° South 123 142 5,400 -120 Descending Memphis Center
21:46 36.3581 -89.5478 161° South 123 142 5,300 -60 Descending Memphis Center
21:47 36.3289 -89.5325 157° South 123 142 5,300  Level Memphis Center
21:48 36.2997 -89.5200 161° South 123 142 5,300  Level Memphis Center
21:49 36.2703 -89.5050 158° South 123 142 5,400  Climbing Memphis Center
21:50 36.2431 -89.4922 159° South 112 129 5,400  Level Memphis Center
21:51 36.2139 -89.4797 161° South 112 129 5,500  Climbing Memphis Center
21:52 36.1825 -89.4697 166° South 112 129 5,500  Level Memphis Center
21:53 36.1469 -89.4703 181° South 119 137 5,600  Climbing Memphis Center
21:54 36.1117 -89.4681 177° South 124 143 5,600  Level Memphis Center
21:55 36.0761 -89.4633 174° South 124 143 5,600  Level Memphis Center
21:56 36.0406 -89.4661 184° South 129 148 5,600 -60 Level Memphis Center
21:57 36.0031 -89.4692 184° South 129 148 5,500 -120 Descending Memphis Center
21:58 35.9678 -89.4772 190° South 129 148 5,400 -120 Descending Memphis Center
21:59 35.9325 -89.4828 187° South 134 154 5,300 -120 Descending Memphis Center
22:00 35.8969 -89.4908 190° South 134 154 5,200 -60 Descending Memphis Center
22:01 35.8636 -89.4989 191° South 129 148 5,200  Level Memphis Center
22:02 35.8325 -89.5019 185° South 122 140 5,300  Climbing Memphis Center
22:03 35.7989 -89.4969 173° South 122 140 5,300  Level Memphis Center
22:04 35.7678 -89.4872 166° South 122 140 5,300  Level Memphis Center
22:05 35.7364 -89.4797 169° South 122 140 5,300 -60 Level Memphis Center
22:06 35.7031 -89.4750 173° South 122 140 5,200 -60 Descending Memphis Center
22:07 35.6778 -89.4728 176° South 115 132 5,200  Level Memphis Center
22:08 35.6425 -89.4731 180° South 115 132 5,200  Level Memphis Center
22:09 35.6092 -89.4708 177° South 115 132 5,200  Level Memphis Center
22:10 35.5756 -89.4714 181° South 122 140 5,200  Level Memphis Center
22:11 35.5422 -89.4742 184° South 122 140 5,300  Climbing Memphis Center
22:12 35.5111 -89.4769 184° South 122 140 5,200 -180 Descending Memphis Center
22:13 35.4756 -89.4750 177° South 122 140 5,000 -360 Descending Memphis Center
22:14 35.4422 -89.4728 177° South 122 140 4,500 -600 Descending Memphis Center
22:15 35.4150 -89.4653 167° South 110 127 3,900 -780 Descending Memphis Center
22:16 35.3919 -89.4606 171° South 99 114 3,000 -840 Descending Memphis Center
22:17 35.3733 -89.4506 156° South 93 107 2,300 -900 Descending Memphis Center
22:18 35.3689 -89.4328 107° East 70 81 1,300 -360 Descending Memphis Center
22:20 35.3833 -89.4333 358° North 79 91 1,200 -60 Descending KMEM
22:22 35.3833 -89.4333 321° Northwest 79 91 1,200  Level KMEM
22:24 35.3833 -89.4333 321° Northwest 79 91 1,200  Level KMEM
22:26 35.3833 -89.4333 321° Northwest 79 91 1,200  Level KMEM
22:28 35.3833 -89.4333 321° Northwest 79 91 1,200  Level KMEM
22:30 35.3833 -89.4333 321° Northwest 79 91 1,200  Level KMEM
22:32 35.3833 -89.4333 321° Northwest 79 91 1,200  Level KMEM
22:34 35.3833 -89.4333 321° Northwest 79 91 1,200  Level KMEM
22:36 35.3833 -89.4333 321° Northwest 79 91 1,200  Level KMEM
22:38 35.3833 -89.4333 321° Northwest 79 91 1,200  Level KMEM
22:40 35.3833 -89.4333 321° Northwest 79 91 1,200  Level KMEM
22:42 35.3833 -89.4333 321° Northwest 79 91 1,200  Level KMEM
22:44 35.3833 -89.4333 321° Northwest 79 91 1,200  Level KMEM
22:46 35.3833 -89.4333 321° Northwest 79 91 1,200  Level KMEM
22:48 35.3833 -89.4333 321° Northwest 79 91 1,200  Level KMEM
22:50 35.3833 -89.4333 321° Northwest 79 91 1,200  Level KMEM
22:52 35.3833 -89.4333 321° Northwest 79 91 1,200  Level KMEM
22:54 35.3833 -89.4333 321° Northwest 79 91 1,200  Level KMEM
22:56 35.3833 -89.4333 321° Northwest 79 91 1,200  Level KMEM
22:58 35.3833 -89.4333 321° Northwest 79 91 1,200  Level KMEM
23:00 35.3833 -89.4333 321° Northwest 79 91 1,200  Level KMEM
23:02 35.3833 -89.4333 321° Northwest 79 91 1,200  Level KMEM
23:04 35.3833 -89.4333 321° Northwest 79 91 1,200  Level KMEM
23:06 35.3833 -89.4333 321° Northwest 79 91 1,200  Level KMEM
23:08 35.3833 -89.4333 321° Northwest 79 91 1,200  Level KMEM
23:10 35.3833 -89.4333 321° Northwest 79 91 1,200  Level KMEM
23:12 35.3833 -89.4333 321° Northwest 79 91 1,200  Level KMEM
23:14 35.3833 -89.4333 321° Northwest 79 91 1,200  Level KMEM
23:16 35.3833 -89.4333 321° Northwest 79 91 1,200  Level KMEM
23:18 35.3833 -89.4333 321° Northwest 79 91 1,200  Level KMEM
23:20 35.3833 -89.4333 321° Northwest 79 91 1,200  Level KMEM
23:22 35.3833 -89.4333 321° Northwest 79 91 1,200  Level KMEM
23:24 35.3833 -89.4333 321° Northwest 79 91 1,200  Level KMEM
23:26 35.3833 -89.4333 321° Northwest 79 91 1,200  Level KMEM
23:28 35.3833 -89.4333 321° Northwest 79 91 1,200  Level KMEM
23:30 35.3833 -89.4333 321° Northwest 79 91 1,200  Level KMEM
23:32 35.3833 -89.4333 321° Northwest 79 91 1,200  Level KMEM
23:34 35.3833 -89.4333 321° Northwest 79 91 1,200  Level KMEM
23:36 35.3833 -89.4333 321° Northwest 79 91 1,200  Level KMEM
23:38 35.3833 -89.4333 321° Northwest 79 91 1,200  Level KMEM
23:40 35.3833 -89.4333 321° Northwest 79 91 1,200  Level KMEM
23:42 35.3833 -89.4333 321° Northwest 79 91 1,200  Level KMEM
23:44 35.3833 -89.4333 321° Northwest 79 91 1,200  Level KMEM
23:46 35.3833 -89.4333 321° Northwest 79 91 1,200  Level KMEM
23:48 35.3833 -89.4333 321° Northwest 79 91 1,200  Level KMEM
23:50 35.3833 -89.4333 321° Northwest 79 91 1,200  Level KMEM
23:52 35.3352 -89.4196 167° South  Level FlightAware Approximate